createdAt,value
2023-01-01T00:02:24.620Z,27.90
2023-01-01T00:04:51.438Z,24.80
2023-01-01T00:07:18.133Z,23.58
2023-01-01T00:10:03.510Z,23.75
2023-01-01T00:12:32.448Z,27.67
2023-01-01T00:14:59.310Z,27.33
2023-01-01T00:17:29.443Z,28.58
2023-01-01T00:19:56.225Z,28.13
2023-01-01T00:25:17.707Z,31.60
2023-01-01T00:27:44.667Z,30.20
2023-01-01T00:30:12.114Z,26.42
2023-01-01T00:32:38.989Z,29.98
2023-01-01T00:35:06.534Z,28.98
2023-01-01T00:37:33.337Z,29.95
2023-01-01T00:39:59.999Z,26.30
2023-01-01T00:42:26.748Z,25.25
2023-01-01T00:44:53.447Z,27.08
2023-01-01T00:47:20.111Z,26.75
2023-01-01T00:49:46.781Z,26.27
2023-01-01T00:52:13.874Z,24.80
2023-01-01T00:54:40.674Z,26.80
2023-01-01T00:57:07.410Z,23.75
2023-01-01T00:59:34.097Z,30.40
2023-01-01T01:02:01.296Z,24.17
2023-01-01T01:04:28.137Z,26.77
2023-01-01T01:06:54.971Z,25.35
2023-01-01T01:09:21.709Z,19.10
2023-01-01T01:11:48.437Z,19.27
2023-01-01T01:14:15.209Z,17.27
2023-01-01T01:16:42.115Z,21.42
2023-01-01T01:19:13.833Z,17.70
2023-01-01T01:21:41.112Z,18.45
2023-01-01T01:24:08.040Z,17.60
2023-01-01T01:26:36.548Z,20.25
2023-01-01T01:29:04.163Z,19.88
2023-01-01T01:31:34.504Z,17.83
2023-01-01T01:34:02.048Z,18.27
2023-01-01T01:36:29.242Z,21.67
2023-01-01T01:38:57.003Z,16.67
2023-01-01T01:41:28.306Z,17.80
2023-01-01T01:44:03.111Z,19.60
2023-01-01T01:49:29.705Z,18.15
2023-01-01T01:51:56.942Z,17.85
2023-01-01T01:54:25.953Z,18.55
2023-01-01T01:57:02.805Z,19.17
2023-01-01T01:59:35.560Z,26.67
2023-01-01T02:02:02.746Z,21.02
2023-01-01T02:04:29.818Z,20.83
2023-01-01T02:06:57.132Z,16.23
2023-01-01T02:09:23.789Z,16.98
2023-01-01T02:11:50.691Z,18.67
2023-01-01T02:14:17.362Z,16.80
2023-01-01T02:16:50.514Z,18.48
2023-01-01T02:20:03.686Z,16.30
2023-01-01T02:23:04.536Z,18.55
2023-01-01T02:26:42.343Z,17.33
2023-01-01T02:29:23.838Z,14.98
2023-01-01T02:32:03.382Z,20.55
2023-01-01T02:34:37.511Z,19.52
2023-01-01T02:37:07.691Z,18.58
2023-01-01T02:39:39.299Z,17.88
2023-01-01T02:42:08.964Z,19.63
2023-01-01T02:44:40.426Z,18.50
2023-01-01T02:47:11.192Z,17.30
2023-01-01T02:49:47.126Z,15.45
2023-01-01T02:52:55.384Z,17.83
2023-01-01T02:55:53.184Z,20.13
2023-01-01T02:58:57.260Z,17.95
2023-01-01T03:01:40.294Z,18.55
2023-01-01T03:04:19.011Z,17.30
2023-01-01T03:07:06.278Z,19.77
2023-01-01T03:09:56.238Z,21.65
2023-01-01T03:12:50.825Z,18.08
2023-01-01T03:15:57.247Z,19.95
2023-01-01T03:18:47.181Z,17.17
2023-01-01T03:23:50.345Z,16.27
2023-01-01T03:26:21.218Z,17.45
2023-01-01T03:28:55.386Z,18.52
2023-01-01T03:31:26.104Z,16.30
2023-01-01T03:34:03.969Z,19.02
2023-01-01T03:36:37.223Z,18.33
2023-01-01T03:39:18.624Z,18.20
2023-01-01T03:41:58.585Z,17.95
2023-01-01T03:44:47.474Z,20.27
2023-01-01T03:47:14.818Z,18.63
2023-01-01T03:49:42.601Z,17.60
2023-01-01T03:52:26.799Z,19.67
2023-01-01T03:55:08.151Z,18.25
2023-01-01T03:58:08.065Z,18.35
2023-01-01T04:00:46.969Z,18.10
2023-01-01T04:03:18.684Z,19.38
2023-01-01T04:05:45.853Z,18.85
2023-01-01T04:08:14.989Z,18.25
2023-01-01T04:10:54.967Z,21.05
2023-01-01T04:13:21.632Z,17.95
2023-01-01T04:15:48.967Z,19.88
2023-01-01T04:18:15.726Z,16.30
2023-01-01T04:20:42.912Z,17.50
2023-01-01T04:23:09.745Z,17.92
2023-01-01T04:25:36.697Z,18.50
2023-01-01T04:28:03.642Z,16.60
2023-01-01T04:30:30.826Z,17.98
2023-01-01T04:32:57.719Z,17.60
2023-01-01T04:35:24.426Z,17.05
2023-01-01T04:37:51.213Z,16.35
2023-01-01T04:40:18.061Z,17.83
2023-01-01T04:42:44.776Z,17.40
2023-01-01T04:45:14.952Z,19.17
2023-01-01T04:47:41.925Z,17.58
2023-01-01T04:50:09.420Z,16.25
2023-01-01T04:52:36.384Z,16.08
2023-01-01T04:55:03.207Z,18.35
2023-01-01T04:57:30.977Z,15.48
2023-01-01T04:59:57.924Z,17.02
2023-01-01T05:02:24.693Z,16.77
2023-01-01T05:04:51.857Z,17.98
2023-01-01T05:07:19.570Z,16.73
2023-01-01T05:09:46.205Z,16.90
2023-01-01T05:12:12.865Z,18.17
2023-01-01T05:14:39.607Z,18.17
2023-01-01T05:17:06.368Z,16.10
2023-01-01T05:19:33.146Z,19.25
2023-01-01T05:22:03.984Z,14.93
2023-01-01T05:24:36.381Z,18.55
2023-01-01T05:27:03.289Z,15.40
2023-01-01T05:29:29.917Z,17.58
2023-01-01T05:31:56.576Z,17.30
2023-01-01T05:34:23.395Z,17.52
2023-01-01T05:36:50.012Z,17.48
2023-01-01T05:39:16.661Z,19.25
2023-01-01T05:41:43.301Z,16.75
2023-01-01T05:44:10.422Z,19.00
2023-01-01T05:46:37.196Z,17.80
2023-01-01T05:49:04.399Z,15.73
2023-01-01T05:53:58.724Z,16.20
2023-01-01T05:56:26.921Z,17.77
2023-01-01T05:58:55.043Z,18.13
2023-01-01T06:01:28.611Z,16.48
2023-01-01T06:03:57.124Z,15.55
2023-01-01T06:06:30.149Z,17.13
2023-01-01T06:09:00.600Z,16.92
2023-01-01T06:11:28.200Z,17.08
2023-01-01T06:13:57.816Z,15.65
2023-01-01T06:16:26.183Z,16.83
2023-01-01T06:18:52.978Z,15.30
2023-01-01T06:21:23.542Z,15.63
2023-01-01T06:23:50.587Z,16.70
2023-01-01T06:26:23.550Z,15.98
2023-01-01T06:28:50.883Z,16.23
2023-01-01T06:31:21.213Z,16.02
2023-01-01T06:33:50.829Z,16.80
2023-01-01T06:36:20.637Z,15.05
2023-01-01T06:38:50.299Z,15.65
2023-01-01T06:41:20.448Z,16.52
2023-01-01T06:43:48.212Z,16.40
2023-01-01T06:46:30.252Z,16.05
2023-01-01T06:49:04.671Z,18.45
2023-01-01T06:51:36.520Z,18.63
2023-01-01T06:54:05.268Z,18.05
2023-01-01T06:56:32.408Z,18.50
2023-01-01T06:58:59.771Z,18.48
2023-01-01T07:01:32.335Z,18.13
2023-01-01T07:04:02.377Z,17.88
2023-01-01T07:06:31.746Z,20.20
2023-01-01T07:08:58.538Z,19.83
2023-01-01T07:11:26.285Z,19.98
2023-01-01T07:13:53.506Z,16.10
2023-01-01T07:16:21.079Z,17.75
2023-01-01T07:18:49.173Z,19.65
2023-01-01T07:21:32.103Z,16.92
2023-01-01T07:24:05.030Z,18.05
2023-01-01T07:26:33.391Z,15.85
2023-01-01T07:29:08.578Z,17.55
2023-01-01T07:31:40.607Z,16.00
2023-01-01T07:34:13.349Z,15.75
2023-01-01T07:36:41.155Z,17.38
2023-01-01T07:39:08.173Z,17.13
2023-01-01T07:41:34.891Z,18.75
2023-01-01T07:44:02.378Z,16.20
2023-01-01T07:46:29.330Z,18.63
2023-01-01T07:48:57.048Z,18.15
2023-01-01T07:51:23.743Z,17.80
2023-01-01T07:53:51.292Z,17.27
2023-01-01T07:56:18.241Z,19.52
2023-01-01T07:58:44.973Z,16.90
2023-01-01T08:01:14.721Z,17.33
2023-01-01T08:03:42.072Z,16.60
2023-01-01T08:06:11.198Z,20.05
2023-01-01T08:08:38.555Z,18.30
2023-01-01T08:11:06.033Z,23.92
2023-01-01T08:13:32.663Z,17.27
2023-01-01T08:15:59.747Z,17.67
2023-01-01T08:18:26.659Z,18.83
2023-01-01T08:20:54.171Z,17.08
2023-01-01T08:23:20.868Z,17.13
2023-01-01T08:25:47.536Z,16.83
2023-01-01T08:28:14.173Z,18.38
2023-01-01T08:30:40.852Z,16.65
2023-01-01T08:33:07.478Z,17.20
2023-01-01T08:35:37.891Z,16.20
2023-01-01T08:38:05.741Z,17.48
2023-01-01T08:40:32.503Z,16.67
2023-01-01T08:42:59.161Z,17.00
2023-01-01T08:45:25.928Z,16.48
2023-01-01T08:47:52.685Z,18.60
2023-01-01T08:50:19.424Z,20.60
2023-01-01T08:52:46.078Z,18.35
2023-01-01T08:55:12.770Z,17.45
2023-01-01T08:57:39.437Z,18.88
2023-01-01T09:00:09.549Z,19.35
2023-01-01T09:02:36.375Z,19.10
2023-01-01T09:05:03.358Z,20.02
2023-01-01T09:07:30.115Z,17.13
2023-01-01T09:09:56.776Z,19.52
2023-01-01T09:12:23.465Z,20.63
2023-01-01T09:14:50.178Z,15.77
2023-01-01T09:17:17.104Z,17.50
2023-01-01T09:19:43.887Z,17.85
2023-01-01T09:22:11.652Z,19.05
2023-01-01T09:24:38.468Z,16.38
2023-01-01T09:27:05.397Z,16.55
2023-01-01T09:29:32.230Z,16.75
2023-01-01T09:31:58.903Z,16.75
2023-01-01T09:34:25.643Z,17.85
2023-01-01T09:36:52.315Z,17.13
2023-01-01T09:39:18.967Z,16.80
2023-01-01T09:42:16.846Z,17.77
2023-01-01T09:45:15.319Z,18.63
2023-01-01T09:47:47.341Z,16.52
2023-01-01T09:50:46.323Z,18.08
2023-01-01T09:53:32.628Z,18.95
2023-01-01T09:56:04.627Z,17.33
2023-01-01T09:58:37.578Z,19.25
2023-01-01T10:01:31.678Z,19.05
2023-01-01T10:04:04.798Z,20.90
2023-01-01T10:06:34.333Z,23.17
2023-01-01T10:09:26.553Z,22.00
2023-01-01T10:11:59.200Z,23.05
2023-01-01T10:14:45.794Z,24.98
2023-01-01T10:17:31.971Z,22.23
2023-01-01T10:20:06.459Z,23.13
2023-01-01T10:22:47.467Z,23.27
2023-01-01T10:25:27.837Z,23.35
2023-01-01T10:28:01.002Z,25.05
2023-01-01T10:30:29.678Z,26.23
2023-01-01T10:32:57.771Z,24.95
2023-01-01T10:35:58.614Z,24.85
2023-01-01T10:38:27.000Z,23.75
2023-01-01T10:41:03.960Z,22.77
2023-01-01T10:43:30.682Z,24.20
2023-01-01T10:45:59.920Z,23.58
2023-01-01T10:48:30.509Z,23.65
2023-01-01T10:51:07.933Z,23.42
2023-01-01T10:53:41.224Z,21.23
2023-01-01T10:56:20.458Z,21.00
2023-01-01T10:58:56.600Z,24.30
2023-01-01T11:01:31.789Z,24.83
2023-01-01T11:04:03.201Z,23.52
2023-01-01T11:06:39.417Z,23.60
2023-01-01T11:09:36.864Z,24.65
2023-01-01T11:12:15.232Z,24.23
2023-01-01T11:14:55.222Z,23.15
2023-01-01T11:17:29.422Z,29.50
2023-01-01T11:22:46.857Z,25.63
2023-01-01T11:25:28.612Z,25.15
2023-01-01T11:28:35.260Z,24.88
2023-01-01T11:31:09.844Z,23.85
2023-01-01T11:33:52.489Z,22.98
2023-01-01T11:36:29.324Z,30.90
2023-01-01T11:39:14.239Z,23.27
2023-01-01T11:41:47.260Z,22.83
2023-01-01T11:44:36.138Z,25.80
2023-01-01T11:47:05.893Z,20.88
2023-01-01T11:49:33.359Z,22.13
2023-01-01T11:52:00.628Z,23.50
2023-01-01T11:54:31.090Z,25.05
2023-01-01T11:57:22.277Z,20.00
2023-01-01T11:59:56.229Z,22.55
2023-01-01T12:02:35.605Z,22.45
2023-01-01T12:05:25.012Z,26.27
2023-01-01T12:07:52.928Z,22.23
2023-01-01T12:10:30.393Z,25.08
2023-01-01T12:13:22.257Z,24.80
2023-01-01T12:16:11.358Z,22.95
2023-01-01T12:19:00.897Z,24.88
2023-01-01T12:21:29.313Z,25.60
2023-01-01T12:23:56.037Z,23.42
2023-01-01T12:26:30.027Z,26.50
2023-01-01T12:29:13.455Z,25.63
2023-01-01T12:32:23.125Z,25.17
2023-01-01T12:35:25.125Z,24.77
2023-01-01T12:38:15.371Z,24.45
2023-01-01T12:41:15.662Z,29.08
2023-01-01T12:44:16.191Z,31.73
2023-01-01T12:47:08.847Z,23.13
2023-01-01T12:49:44.106Z,26.17
2023-01-01T12:53:00.435Z,24.45
2023-01-01T12:55:57.545Z,24.38
2023-01-01T12:58:36.145Z,22.40
2023-01-01T13:01:33.435Z,22.35
2023-01-01T13:04:05.938Z,25.85
2023-01-01T13:06:49.184Z,24.38
2023-01-01T13:09:21.849Z,24.57
2023-01-01T13:12:13.608Z,20.55
2023-01-01T13:14:45.187Z,22.88
2023-01-01T13:17:29.357Z,20.92
2023-01-01T13:20:14.686Z,21.05
2023-01-01T13:22:44.045Z,20.38
2023-01-01T13:25:16.587Z,23.25
2023-01-01T13:28:03.373Z,23.02
2023-01-01T13:30:39.679Z,23.50
2023-01-01T13:33:29.970Z,24.48
2023-01-01T13:36:09.296Z,22.13
2023-01-01T13:38:55.989Z,26.13
2023-01-01T13:41:35.361Z,25.15
2023-01-01T13:44:03.139Z,27.58
2023-01-01T13:46:32.921Z,25.48
2023-01-01T13:49:18.685Z,22.65
2023-01-01T13:52:19.851Z,18.30
2023-01-01T13:55:04.804Z,17.48
2023-01-01T13:58:15.254Z,20.55
2023-01-01T14:01:13.048Z,25.27
2023-01-01T14:03:46.547Z,21.48
2023-01-01T14:06:20.733Z,20.02
2023-01-01T14:09:20.617Z,19.88
2023-01-01T14:11:48.537Z,18.67
2023-01-01T14:14:24.234Z,18.83
2023-01-01T14:16:53.773Z,27.73
2023-01-01T14:19:21.102Z,19.20
2023-01-01T14:21:48.135Z,20.95
2023-01-01T14:24:18.181Z,18.30
2023-01-01T14:26:45.377Z,17.27
2023-01-01T14:29:41.719Z,16.33
2023-01-01T14:32:22.693Z,16.02
2023-01-01T14:35:02.148Z,16.85
2023-01-01T14:37:28.877Z,15.75
2023-01-01T14:40:29.548Z,17.95
2023-01-01T14:43:05.577Z,22.25
2023-01-01T14:45:36.342Z,17.60
2023-01-01T14:48:04.250Z,19.85
2023-01-01T14:50:34.147Z,15.50
2023-01-01T14:53:18.759Z,16.95
2023-01-01T14:55:47.672Z,18.00
2023-01-01T14:58:25.314Z,19.73
2023-01-01T15:00:53.070Z,20.33
2023-01-01T15:03:23.415Z,19.42
2023-01-01T15:06:02.805Z,17.05
2023-01-01T15:08:29.762Z,17.52
2023-01-01T15:10:57.385Z,17.15
2023-01-01T15:13:28.376Z,20.23
2023-01-01T15:15:57.723Z,18.77
2023-01-01T15:18:43.290Z,16.08
2023-01-01T15:21:13.905Z,18.70
2023-01-01T15:23:54.029Z,17.27
2023-01-01T15:26:57.528Z,19.58
2023-01-01T15:29:29.682Z,17.33
2023-01-01T15:32:08.819Z,17.95
2023-01-01T15:35:24.858Z,17.30
2023-01-01T15:38:17.522Z,18.92
2023-01-01T15:40:49.402Z,19.50
2023-01-01T15:43:29.669Z,18.67
2023-01-01T15:45:59.113Z,19.98
2023-01-01T15:48:43.447Z,21.58
2023-01-01T15:51:25.699Z,18.30
2023-01-01T15:54:01.862Z,17.77
2023-01-01T15:56:39.415Z,19.45
2023-01-01T15:59:23.764Z,22.13
2023-01-01T16:01:51.489Z,20.58
2023-01-01T16:04:29.043Z,20.50
2023-01-01T16:06:57.906Z,19.08
2023-01-01T16:09:24.649Z,25.85
2023-01-01T16:11:57.166Z,26.35
2023-01-01T16:14:24.334Z,24.88
2023-01-01T16:17:00.430Z,23.65
2023-01-01T16:19:30.267Z,24.45
2023-01-01T16:21:57.106Z,25.17
2023-01-01T16:24:24.621Z,21.85
2023-01-01T16:26:53.058Z,27.92
2023-01-01T16:29:19.777Z,24.40
2023-01-01T16:31:48.055Z,26.35
2023-01-01T16:34:15.238Z,22.88
2023-01-01T16:36:43.538Z,24.40
2023-01-01T16:39:11.114Z,26.02
2023-01-01T16:41:42.431Z,29.80
2023-01-01T16:44:14.499Z,25.42
2023-01-01T16:46:42.115Z,23.30
2023-01-01T16:49:08.962Z,25.58
2023-01-01T16:51:35.878Z,25.85
2023-01-01T16:54:03.262Z,24.35
2023-01-01T16:56:30.238Z,24.77
2023-01-01T16:59:02.881Z,24.38
2023-01-01T17:01:30.632Z,22.73
2023-01-01T17:03:57.522Z,22.15
2023-01-01T17:06:24.255Z,25.52
2023-01-01T17:08:51.085Z,23.00
2023-01-01T17:11:18.746Z,23.30
2023-01-01T17:13:47.931Z,22.25
2023-01-01T17:16:25.235Z,25.02
2023-01-01T17:21:41.958Z,23.88
2023-01-01T17:24:09.001Z,24.38
2023-01-01T17:26:35.711Z,23.90
2023-01-01T17:29:03.046Z,26.13
2023-01-01T17:31:30.152Z,24.05
2023-01-01T17:33:57.064Z,24.92
2023-01-01T17:36:23.975Z,27.55
2023-01-01T17:38:50.689Z,25.60
2023-01-01T17:41:18.195Z,25.48
2023-01-01T17:43:48.184Z,24.73
2023-01-01T17:46:33.593Z,28.45
2023-01-01T17:49:02.320Z,27.63
2023-01-01T17:51:29.811Z,27.95
2023-01-01T17:53:56.983Z,27.10
2023-01-01T17:56:24.992Z,25.70
2023-01-01T17:58:53.867Z,26.50
2023-01-01T18:01:23.843Z,26.80
2023-01-01T18:04:05.919Z,26.70
2023-01-01T18:06:40.255Z,27.00
2023-01-01T18:09:12.584Z,25.92
2023-01-01T18:11:40.137Z,28.02
2023-01-01T18:14:07.160Z,24.83
2023-01-01T18:16:36.692Z,27.33
2023-01-01T18:19:05.226Z,27.00
2023-01-01T18:21:33.582Z,33.65
2023-01-01T18:24:01.626Z,27.10
2023-01-01T18:26:30.983Z,27.42
2023-01-01T18:29:01.208Z,26.63
2023-01-01T18:31:31.213Z,28.10
2023-01-01T18:33:58.157Z,29.70
2023-01-01T18:36:31.930Z,29.33
2023-01-01T18:39:21.723Z,29.25
2023-01-01T18:41:48.285Z,28.48
2023-01-01T18:44:22.666Z,28.48
2023-01-01T18:47:14.359Z,26.75
2023-01-01T18:49:48.595Z,25.80
2023-01-01T18:52:20.457Z,29.33
2023-01-01T18:54:47.561Z,25.67
2023-01-01T18:57:29.212Z,25.33
2023-01-01T19:00:00.313Z,22.52
2023-01-01T19:02:39.173Z,22.77
2023-01-01T19:05:17.310Z,24.73
2023-01-01T19:07:57.887Z,23.35
2023-01-01T19:10:25.333Z,23.33
2023-01-01T19:12:54.910Z,23.08
2023-01-01T19:15:22.128Z,25.80
2023-01-01T19:17:49.517Z,25.08
2023-01-01T19:20:20.068Z,24.98
2023-01-01T19:22:47.686Z,25.35
2023-01-01T19:25:36.747Z,25.10
2023-01-01T19:28:32.473Z,25.65
2023-01-01T19:31:00.487Z,24.55
2023-01-01T19:33:27.779Z,25.73
2023-01-01T19:35:54.458Z,23.75
2023-01-01T19:38:21.305Z,26.02
2023-01-01T19:40:48.568Z,24.85
2023-01-01T19:43:15.299Z,26.27
2023-01-01T19:45:41.997Z,22.02
2023-01-01T19:48:08.713Z,24.40
2023-01-01T19:50:35.463Z,21.73
2023-01-01T19:53:02.146Z,26.50
2023-01-01T19:55:28.821Z,20.50
2023-01-01T19:57:55.547Z,23.30
2023-01-01T20:00:22.840Z,24.35
2023-01-01T20:02:49.934Z,23.30
2023-01-01T20:05:16.852Z,22.55
2023-01-01T20:07:43.550Z,23.65
2023-01-01T20:10:10.777Z,23.67
2023-01-01T20:12:37.448Z,25.05
2023-01-01T20:15:04.768Z,24.90
2023-01-01T20:17:31.594Z,24.48
2023-01-01T20:19:58.522Z,23.05
2023-01-01T20:22:25.413Z,23.23
2023-01-01T20:24:52.218Z,18.50
2023-01-01T20:27:24.180Z,20.25
2023-01-01T20:29:51.538Z,21.75
2023-01-01T20:32:18.580Z,17.05
2023-01-01T20:34:45.429Z,19.30
2023-01-01T20:37:30.767Z,20.35
2023-01-01T20:39:57.509Z,18.17
2023-01-01T20:42:25.334Z,18.83
2023-01-01T20:44:52.088Z,18.63
2023-01-01T20:47:18.823Z,18.30
2023-01-01T20:49:45.499Z,17.55
2023-01-01T20:52:12.303Z,18.98
2023-01-01T20:54:38.961Z,21.63
2023-01-01T20:57:05.758Z,19.90
2023-01-01T20:59:37.316Z,16.73
2023-01-01T21:02:11.149Z,19.75
2023-01-01T21:04:39.591Z,22.08
2023-01-01T21:07:09.158Z,24.40
2023-01-01T21:09:36.949Z,16.60
2023-01-01T21:12:04.295Z,20.33
2023-01-01T21:14:31.318Z,21.00
2023-01-01T21:17:18.405Z,19.58
2023-01-01T21:19:45.340Z,18.73
2023-01-01T21:22:12.955Z,18.88
2023-01-01T21:24:40.027Z,19.88
2023-01-01T21:27:23.942Z,19.48
2023-01-01T21:29:53.587Z,19.73
2023-01-01T21:32:42.778Z,18.83
2023-01-01T21:35:32.816Z,19.73
2023-01-01T21:38:00.163Z,21.27
2023-01-01T21:40:41.875Z,19.75
2023-01-01T21:43:08.456Z,20.88
2023-01-01T21:45:40.685Z,20.10
2023-01-01T21:48:19.534Z,16.77
2023-01-01T21:50:48.436Z,17.88
2023-01-01T21:53:22.252Z,19.00
2023-01-01T21:55:54.491Z,19.25
2023-01-01T21:58:51.386Z,18.67
2023-01-01T22:01:25.584Z,23.05
2023-01-01T22:04:00.053Z,22.27
2023-01-01T22:06:38.848Z,19.58
2023-01-01T22:09:29.076Z,18.42
2023-01-01T22:12:24.275Z,21.27
2023-01-01T22:14:55.161Z,21.40
2023-01-01T22:17:36.749Z,18.02
2023-01-01T22:20:19.805Z,19.17
2023-01-01T22:22:46.484Z,19.95
2023-01-01T22:25:27.459Z,15.60
2023-01-01T22:27:54.784Z,23.55
2023-01-01T22:30:42.673Z,17.83
2023-01-01T22:33:18.066Z,18.27
2023-01-01T22:35:45.661Z,20.23
2023-01-01T22:38:20.988Z,16.33
2023-01-01T22:40:50.492Z,17.85
2023-01-01T22:43:22.539Z,17.45
2023-01-01T22:45:49.986Z,19.63
2023-01-01T22:48:31.666Z,15.50
2023-01-01T22:51:06.499Z,18.40
2023-01-01T22:53:33.281Z,19.30
2023-01-01T22:55:59.962Z,18.75
2023-01-01T22:58:26.643Z,18.42
2023-01-01T23:00:53.423Z,16.27
2023-01-01T23:03:20.145Z,18.55
2023-01-01T23:05:46.967Z,19.25
2023-01-01T23:08:13.633Z,17.92
2023-01-01T23:10:40.346Z,20.15
2023-01-01T23:13:25.405Z,17.33
2023-01-01T23:16:00.993Z,20.50
2023-01-01T23:18:35.977Z,16.10
2023-01-01T23:21:08.769Z,17.80
2023-01-01T23:23:36.781Z,18.25
2023-01-01T23:26:04.981Z,17.45
2023-01-01T23:28:32.339Z,17.52
2023-01-01T23:31:02.487Z,16.73
2023-01-01T23:33:30.253Z,18.85
2023-01-01T23:35:57.219Z,14.57
2023-01-01T23:38:24.750Z,17.10
2023-01-01T23:40:51.455Z,17.50
2023-01-01T23:43:18.208Z,18.92
2023-01-01T23:45:46.220Z,17.23
2023-01-01T23:48:13.877Z,18.67
2023-01-01T23:50:40.664Z,20.30
2023-01-01T23:53:08.868Z,20.55
2023-01-01T23:55:35.552Z,17.95
2023-01-01T23:58:02.297Z,19.90
